sensor_id;sensor_type;location;lat;lon;timestamp;P1;durP1;ratioP1;P2;durP2;ratioP2
21569;SDS011;57598;50.888;4.746;2023-07-29T00:01:56;48.15;;;43.95;;
21569;SDS011;57598;50.888;4.746;2023-07-29T00:04:23;48.40;;;44.17;;
21569;SDS011;57598;50.888;4.746;2023-07-29T00:06:50;46.83;;;42.67;;
21569;SDS011;57598;50.888;4.746;2023-07-29T00:09:19;46.75;;;42.55;;
21569;SDS011;57598;50.888;4.746;2023-07-29T00:11:46;47.35;;;43.15;;
21569;SDS011;57598;50.888;4.746;2023-07-29T00:14:14;50.95;;;46.35;;
21569;SDS011;57598;50.888;4.746;2023-07-29T00:16:41;48.00;;;43.70;;
21569;SDS011;57598;50.888;4.746;2023-07-29T00:19:08;48.60;;;44.30;;
21569;SDS011;57598;50.888;4.746;2023-07-29T00:21:36;48.17;;;43.88;;
21569;SDS011;57598;50.888;4.746;2023-07-29T00:24:03;48.55;;;44.28;;
21569;SDS011;57598;50.888;4.746;2023-07-29T00:26:32;47.30;;;43.10;;
21569;SDS011;57598;50.888;4.746;2023-07-29T00:28:59;46.95;;;42.78;;
21569;SDS011;57598;50.888;4.746;2023-07-29T00:31:26;48.50;;;44.20;;
21569;SDS011;57598;50.888;4.746;2023-07-29T00:33:54;47.45;;;43.25;;
21569;SDS011;57598;50.888;4.746;2023-07-29T00:36:23;47.33;;;43.13;;
21569;SDS011;57598;50.888;4.746;2023-07-29T00:38:50;48.38;;;44.08;;
21569;SDS011;57598;50.888;4.746;2023-07-29T00:41:19;49.60;;;45.20;;
21569;SDS011;57598;50.888;4.746;2023-07-29T00:43:49;48.60;;;43.90;;
21569;SDS011;57598;50.888;4.746;2023-07-29T00:46:17;47.33;;;43.15;;
21569;SDS011;57598;50.888;4.746;2023-07-29T00:48:44;47.60;;;43.40;;
21569;SDS011;57598;50.888;4.746;2023-07-29T00:51:11;48.28;;;44.08;;
21569;SDS011;57598;50.888;4.746;2023-07-29T00:53:38;46.95;;;42.83;;
21569;SDS011;57598;50.888;4.746;2023-07-29T00:56:06;47.45;;;43.35;;
21569;SDS011;57598;50.888;4.746;2023-07-29T00:58:33;47.55;;;43.33;;
21569;SDS011;57598;50.888;4.746;2023-07-29T01:01:02;46.83;;;42.72;;
21569;SDS011;57598;50.888;4.746;2023-07-29T01:03:29;45.53;;;41.53;;
21569;SDS011;57598;50.888;4.746;2023-07-29T01:06:01;45.90;;;41.90;;
21569;SDS011;57598;50.888;4.746;2023-07-29T01:08:36;45.38;;;41.47;;
21569;SDS011;57598;50.888;4.746;2023-07-29T01:11:08;46.88;;;42.88;;
21569;SDS011;57598;50.888;4.746;2023-07-29T01:13:41;45.53;;;41.63;;
21569;SDS011;57598;50.888;4.746;2023-07-29T01:16:13;45.67;;;41.78;;
21569;SDS011;57598;50.888;4.746;2023-07-29T01:18:42;45.28;;;41.38;;
21569;SDS011;57598;50.888;4.746;2023-07-29T01:21:11;46.25;;;42.20;;
21569;SDS011;57598;50.888;4.746;2023-07-29T01:23:41;44.53;;;40.67;;
21569;SDS011;57598;50.888;4.746;2023-07-29T01:26:08;44.60;;;40.72;;
21569;SDS011;57598;50.888;4.746;2023-07-29T01:28:36;44.85;;;41.03;;
21569;SDS011;57598;50.888;4.746;2023-07-29T01:31:06;44.40;;;40.60;;
21569;SDS011;57598;50.888;4.746;2023-07-29T01:33:35;45.53;;;41.63;;
21569;SDS011;57598;50.888;4.746;2023-07-29T01:36:07;44.88;;;41.05;;
21569;SDS011;57598;50.888;4.746;2023-07-29T01:38:36;46.10;;;42.20;;
21569;SDS011;57598;50.888;4.746;2023-07-29T01:41:06;45.63;;;41.72;;
21569;SDS011;57598;50.888;4.746;2023-07-29T01:43:34;45.00;;;41.13;;
21569;SDS011;57598;50.888;4.746;2023-07-29T01:46:06;45.20;;;41.30;;
21569;SDS011;57598;50.888;4.746;2023-07-29T01:48:34;45.15;;;41.25;;
21569;SDS011;57598;50.888;4.746;2023-07-29T01:51:01;44.63;;;40.83;;
21569;SDS011;57598;50.888;4.746;2023-07-29T01:53:28;45.28;;;41.38;;
21569;SDS011;57598;50.888;4.746;2023-07-29T01:55:56;45.30;;;41.40;;
21569;SDS011;57598;50.888;4.746;2023-07-29T01:58:24;45.60;;;41.65;;
21569;SDS011;57598;50.888;4.746;2023-07-29T02:00:52;46.17;;;42.17;;
21569;SDS011;57598;50.888;4.746;2023-07-29T02:03:19;45.38;;;41.47;;
21569;SDS011;57598;50.888;4.746;2023-07-29T02:05:46;46.22;;;42.22;;
21569;SDS011;57598;50.888;4.746;2023-07-29T02:08:14;45.53;;;41.63;;
21569;SDS011;57598;50.888;4.746;2023-07-29T02:10:41;44.78;;;40.88;;
21569;SDS011;57598;50.888;4.746;2023-07-29T02:13:13;45.08;;;41.17;;
21569;SDS011;57598;50.888;4.746;2023-07-29T02:15:41;45.00;;;41.10;;
21569;SDS011;57598;50.888;4.746;2023-07-29T02:18:09;45.28;;;41.38;;
21569;SDS011;57598;50.888;4.746;2023-07-29T02:20:36;45.67;;;41.70;;
21569;SDS011;57598;50.888;4.746;2023-07-29T02:23:03;45.30;;;41.40;;
21569;SDS011;57598;50.888;4.746;2023-07-29T02:25:31;45.22;;;41.25;;
21569;SDS011;57598;50.888;4.746;2023-07-29T02:27:58;45.58;;;41.60;;
21569;SDS011;57598;50.888;4.746;2023-07-29T02:30:25;45.78;;;41.78;;
21569;SDS011;57598;50.888;4.746;2023-07-29T02:32:54;45.30;;;41.33;;
21569;SDS011;57598;50.888;4.746;2023-07-29T02:35:21;45.15;;;41.20;;
21569;SDS011;57598;50.888;4.746;2023-07-29T02:37:48;45.72;;;41.72;;
21569;SDS011;57598;50.888;4.746;2023-07-29T02:40:16;45.42;;;41.47;;
21569;SDS011;57598;50.888;4.746;2023-07-29T02:42:43;46.33;;;42.05;;
21569;SDS011;57598;50.888;4.746;2023-07-29T02:45:10;47.20;;;43.10;;
21569;SDS011;57598;50.888;4.746;2023-07-29T02:47:37;45.80;;;41.80;;
21569;SDS011;57598;50.888;4.746;2023-07-29T02:50:07;46.63;;;42.53;;
21569;SDS011;57598;50.888;4.746;2023-07-29T02:52:34;46.33;;;42.30;;
21569;SDS011;57598;50.888;4.746;2023-07-29T02:55:01;48.13;;;43.58;;
21569;SDS011;57598;50.888;4.746;2023-07-29T02:57:28;45.70;;;41.70;;
21569;SDS011;57598;50.888;4.746;2023-07-29T02:59:56;47.50;;;43.33;;
21569;SDS011;57598;50.888;4.746;2023-07-29T03:02:23;47.70;;;43.50;;
21569;SDS011;57598;50.888;4.746;2023-07-29T03:04:50;48.10;;;43.80;;
21569;SDS011;57598;50.888;4.746;2023-07-29T03:07:19;47.22;;;43.03;;
21569;SDS011;57598;50.888;4.746;2023-07-29T03:09:46;48.35;;;44.05;;
21569;SDS011;57598;50.888;4.746;2023-07-29T03:12:13;46.80;;;42.60;;
21569;SDS011;57598;50.888;4.746;2023-07-29T03:14:41;46.22;;;42.13;;
21569;SDS011;57598;50.888;4.746;2023-07-29T03:17:08;46.67;;;42.47;;
21569;SDS011;57598;50.888;4.746;2023-07-29T03:19:35;46.00;;;41.90;;
21569;SDS011;57598;50.888;4.746;2023-07-29T03:22:02;46.28;;;42.17;;
21569;SDS011;57598;50.888;4.746;2023-07-29T03:24:31;47.03;;;42.88;;
21569;SDS011;57598;50.888;4.746;2023-07-29T03:26:58;47.30;;;43.10;;
21569;SDS011;57598;50.888;4.746;2023-07-29T03:29:26;46.00;;;41.90;;
21569;SDS011;57598;50.888;4.746;2023-07-29T03:31:53;47.65;;;43.35;;
21569;SDS011;57598;50.888;4.746;2023-07-29T03:34:21;46.97;;;42.78;;
21569;SDS011;57598;50.888;4.746;2023-07-29T03:36:48;46.80;;;42.60;;
21569;SDS011;57598;50.888;4.746;2023-07-29T03:39:16;47.80;;;43.55;;
21569;SDS011;57598;50.888;4.746;2023-07-29T03:41:45;47.60;;;43.40;;
21569;SDS011;57598;50.888;4.746;2023-07-29T03:44:12;48.15;;;43.70;;
21569;SDS011;57598;50.888;4.746;2023-07-29T03:46:40;47.25;;;43.05;;
21569;SDS011;57598;50.888;4.746;2023-07-29T03:49:07;48.00;;;43.70;;
21569;SDS011;57598;50.888;4.746;2023-07-29T03:51:34;47.15;;;42.95;;
21569;SDS011;57598;50.888;4.746;2023-07-29T03:54:01;46.28;;;42.17;;
21569;SDS011;57598;50.888;4.746;2023-07-29T03:56:29;46.65;;;42.45;;
21569;SDS011;57598;50.888;4.746;2023-07-29T03:59:03;46.92;;;42.83;;
21569;SDS011;57598;50.888;4.746;2023-07-29T04:01:30;45.90;;;41.80;;
21569;SDS011;57598;50.888;4.746;2023-07-29T04:03:57;46.05;;;41.95;;
21569;SDS011;57598;50.888;4.746;2023-07-29T04:06:25;47.10;;;43.00;;
21569;SDS011;57598;50.888;4.746;2023-07-29T04:08:52;46.47;;;42.22;;
21569;SDS011;57598;50.888;4.746;2023-07-29T04:11:20;47.35;;;43.15;;
21569;SDS011;57598;50.888;4.746;2023-07-29T04:13:47;47.47;;;43.38;;
21569;SDS011;57598;50.888;4.746;2023-07-29T04:16:16;47.70;;;43.40;;
21569;SDS011;57598;50.888;4.746;2023-07-29T04:18:43;47.80;;;43.50;;
21569;SDS011;57598;50.888;4.746;2023-07-29T04:21:10;46.45;;;42.40;;
21569;SDS011;57598;50.888;4.746;2023-07-29T04:23:38;45.33;;;41.33;;
21569;SDS011;57598;50.888;4.746;2023-07-29T04:26:05;45.45;;;41.45;;
21569;SDS011;57598;50.888;4.746;2023-07-29T04:28:32;45.28;;;41.28;;
21569;SDS011;57598;50.888;4.746;2023-07-29T04:31:00;47.17;;;42.97;;
21569;SDS011;57598;50.888;4.746;2023-07-29T04:33:28;45.40;;;41.42;;
21569;SDS011;57598;50.888;4.746;2023-07-29T04:35:56;45.38;;;41.38;;
21569;SDS011;57598;50.888;4.746;2023-07-29T04:38:24;45.42;;;41.42;;
21569;SDS011;57598;50.888;4.746;2023-07-29T04:40:51;44.67;;;40.67;;
21569;SDS011;57598;50.888;4.746;2023-07-29T04:43:18;44.25;;;40.35;;
21569;SDS011;57598;50.888;4.746;2023-07-29T04:45:45;44.63;;;40.42;;
21569;SDS011;57598;50.888;4.746;2023-07-29T04:48:13;44.42;;;40.40;;
21569;SDS011;57598;50.888;4.746;2023-07-29T04:50:42;45.45;;;41.65;;
21569;SDS011;57598;50.888;4.746;2023-07-29T04:53:09;46.40;;;42.08;;
21569;SDS011;57598;50.888;4.746;2023-07-29T04:55:36;45.38;;;41.58;;
21569;SDS011;57598;50.888;4.746;2023-07-29T04:58:03;45.42;;;41.60;;
21569;SDS011;57598;50.888;4.746;2023-07-29T05:00:31;44.40;;;40.70;;
21569;SDS011;57598;50.888;4.746;2023-07-29T05:02:58;44.70;;;40.97;;
21569;SDS011;57598;50.888;4.746;2023-07-29T05:05:26;45.15;;;41.45;;
21569;SDS011;57598;50.888;4.746;2023-07-29T05:07:54;44.28;;;40.58;;
21569;SDS011;57598;50.888;4.746;2023-07-29T05:10:22;45.33;;;41.58;;
21569;SDS011;57598;50.888;4.746;2023-07-29T05:12:49;46.17;;;42.38;;
21569;SDS011;57598;50.888;4.746;2023-07-29T05:15:18;44.15;;;40.45;;
21569;SDS011;57598;50.888;4.746;2023-07-29T05:17:45;44.42;;;40.78;;
21569;SDS011;57598;50.888;4.746;2023-07-29T05:20:12;43.92;;;40.33;;
21569;SDS011;57598;50.888;4.746;2023-07-29T05:22:40;44.20;;;40.60;;
21569;SDS011;57598;50.888;4.746;2023-07-29T05:25:08;44.58;;;40.97;;
21569;SDS011;57598;50.888;4.746;2023-07-29T05:27:36;44.47;;;40.88;;
21569;SDS011;57598;50.888;4.746;2023-07-29T05:30:03;47.15;;;43.45;;
21569;SDS011;57598;50.888;4.746;2023-07-29T05:32:31;46.35;;;42.75;;
21569;SDS011;57598;50.888;4.746;2023-07-29T05:34:58;47.28;;;43.58;;
21569;SDS011;57598;50.888;4.746;2023-07-29T05:37:26;47.40;;;42.17;;
21569;SDS011;57598;50.888;4.746;2023-07-29T05:39:53;46.22;;;42.63;;
21569;SDS011;57598;50.888;4.746;2023-07-29T05:42:22;45.90;;;42.30;;
21569;SDS011;57598;50.888;4.746;2023-07-29T05:44:49;45.20;;;41.70;;
21569;SDS011;57598;50.888;4.746;2023-07-29T05:47:16;43.45;;;40.05;;
21569;SDS011;57598;50.888;4.746;2023-07-29T05:49:43;43.90;;;40.50;;
21569;SDS011;57598;50.888;4.746;2023-07-29T05:52:11;46.28;;;42.67;;
21569;SDS011;57598;50.888;4.746;2023-07-29T05:54:38;46.85;;;43.25;;
21569;SDS011;57598;50.888;4.746;2023-07-29T05:57:08;47.05;;;43.45;;
21569;SDS011;57598;50.888;4.746;2023-07-29T05:59:37;45.65;;;42.10;;
21569;SDS011;57598;50.888;4.746;2023-07-29T06:02:04;45.33;;;41.92;;
21569;SDS011;57598;50.888;4.746;2023-07-29T06:04:32;45.13;;;41.53;;
21569;SDS011;57598;50.888;4.746;2023-07-29T06:06:59;45.88;;;42.47;;
21569;SDS011;57598;50.888;4.746;2023-07-29T06:09:26;46.75;;;43.03;;
21569;SDS011;57598;50.888;4.746;2023-07-29T06:11:54;43.70;;;40.50;;
21569;SDS011;57598;50.888;4.746;2023-07-29T06:14:21;44.20;;;40.72;;
21569;SDS011;57598;50.888;4.746;2023-07-29T06:16:49;43.15;;;39.95;;
21569;SDS011;57598;50.888;4.746;2023-07-29T06:19:17;42.33;;;39.15;;
21569;SDS011;57598;50.888;4.746;2023-07-29T06:21:44;41.70;;;38.60;;
21569;SDS011;57598;50.888;4.746;2023-07-29T06:24:12;41.10;;;38.00;;
21569;SDS011;57598;50.888;4.746;2023-07-29T06:26:39;42.45;;;39.25;;
21569;SDS011;57598;50.888;4.746;2023-07-29T06:29:06;41.88;;;38.75;;
21569;SDS011;57598;50.888;4.746;2023-07-29T06:31:33;41.63;;;38.53;;
21569;SDS011;57598;50.888;4.746;2023-07-29T06:34:02;41.70;;;38.25;;
21569;SDS011;57598;50.888;4.746;2023-07-29T06:36:29;41.00;;;38.00;;
21569;SDS011;57598;50.888;4.746;2023-07-29T06:38:56;40.38;;;37.47;;
21569;SDS011;57598;50.888;4.746;2023-07-29T06:41:24;40.58;;;37.70;;
21569;SDS011;57598;50.888;4.746;2023-07-29T06:43:51;39.50;;;36.80;;
21569;SDS011;57598;50.888;4.746;2023-07-29T06:46:18;39.88;;;37.17;;
21569;SDS011;57598;50.888;4.746;2023-07-29T06:48:45;39.20;;;36.60;;
21569;SDS011;57598;50.888;4.746;2023-07-29T06:51:14;39.80;;;37.10;;
21569;SDS011;57598;50.888;4.746;2023-07-29T06:53:41;38.50;;;35.92;;
21569;SDS011;57598;50.888;4.746;2023-07-29T06:56:09;37.55;;;35.05;;
21569;SDS011;57598;50.888;4.746;2023-07-29T06:58:36;37.50;;;35.10;;
21569;SDS011;57598;50.888;4.746;2023-07-29T07:01:04;35.80;;;33.50;;
21569;SDS011;57598;50.888;4.746;2023-07-29T07:03:31;36.03;;;33.83;;
21569;SDS011;57598;50.888;4.746;2023-07-29T07:05:58;36.55;;;34.25;;
21569;SDS011;57598;50.888;4.746;2023-07-29T07:08:27;36.70;;;34.40;;
21569;SDS011;57598;50.888;4.746;2023-07-29T07:10:55;38.28;;;35.67;;
21569;SDS011;57598;50.888;4.746;2023-07-29T07:13:23;37.80;;;35.40;;
21569;SDS011;57598;50.888;4.746;2023-07-29T07:15:50;36.70;;;34.30;;
21569;SDS011;57598;50.888;4.746;2023-07-29T07:18:17;36.60;;;34.20;;
21569;SDS011;57598;50.888;4.746;2023-07-29T07:20:47;36.60;;;34.20;;
21569;SDS011;57598;50.888;4.746;2023-07-29T07:23:15;36.65;;;34.35;;
21569;SDS011;57598;50.888;4.746;2023-07-29T07:25:43;37.53;;;35.13;;
21569;SDS011;57598;50.888;4.746;2023-07-29T07:28:11;36.65;;;34.35;;
21569;SDS011;57598;50.888;4.746;2023-07-29T07:30:39;37.65;;;35.15;;
21569;SDS011;57598;50.888;4.746;2023-07-29T07:33:07;37.60;;;35.20;;
21569;SDS011;57598;50.888;4.746;2023-07-29T07:35:34;38.90;;;36.40;;
21569;SDS011;57598;50.888;4.746;2023-07-29T07:38:02;38.08;;;35.58;;
21569;SDS011;57598;50.888;4.746;2023-07-29T07:40:29;38.47;;;35.97;;
21569;SDS011;57598;50.888;4.746;2023-07-29T07:42:58;38.15;;;35.65;;
21569;SDS011;57598;50.888;4.746;2023-07-29T07:45:25;38.03;;;35.55;;
21569;SDS011;57598;50.888;4.746;2023-07-29T07:47:53;39.65;;;37.15;;
21569;SDS011;57598;50.888;4.746;2023-07-29T07:50:20;40.05;;;37.45;;
21569;SDS011;57598;50.888;4.746;2023-07-29T07:52:49;39.55;;;36.95;;
21569;SDS011;57598;50.888;4.746;2023-07-29T07:55:16;39.88;;;37.28;;
21569;SDS011;57598;50.888;4.746;2023-07-29T07:57:43;39.08;;;36.47;;
21569;SDS011;57598;50.888;4.746;2023-07-29T08:00:13;40.05;;;37.35;;
21569;SDS011;57598;50.888;4.746;2023-07-29T08:02:43;40.92;;;38.22;;
21569;SDS011;57598;50.888;4.746;2023-07-29T08:05:10;39.88;;;37.22;;
21569;SDS011;57598;50.888;4.746;2023-07-29T08:07:38;39.35;;;36.75;;
21569;SDS011;57598;50.888;4.746;2023-07-29T08:10:06;38.63;;;35.95;;
21569;SDS011;57598;50.888;4.746;2023-07-29T08:12:33;39.17;;;36.58;;
21569;SDS011;57598;50.888;4.746;2023-07-29T08:15:00;39.47;;;36.80;;
21569;SDS011;57598;50.888;4.746;2023-07-29T08:17:29;39.28;;;36.75;;
21569;SDS011;57598;50.888;4.746;2023-07-29T08:19:56;37.75;;;35.35;;
21569;SDS011;57598;50.888;4.746;2023-07-29T08:22:23;36.90;;;34.50;;
21569;SDS011;57598;50.888;4.746;2023-07-29T08:24:51;36.92;;;34.53;;
21569;SDS011;57598;50.888;4.746;2023-07-29T08:27:18;37.15;;;34.80;;
21569;SDS011;57598;50.888;4.746;2023-07-29T08:29:45;37.33;;;34.83;;
21569;SDS011;57598;50.888;4.746;2023-07-29T08:32:13;36.33;;;34.03;;
21569;SDS011;57598;50.888;4.746;2023-07-29T08:34:41;36.13;;;33.83;;
21569;SDS011;57598;50.888;4.746;2023-07-29T08:37:09;36.85;;;34.55;;
21569;SDS011;57598;50.888;4.746;2023-07-29T08:39:36;36.00;;;33.80;;
21569;SDS011;57598;50.888;4.746;2023-07-29T08:42:03;35.90;;;33.67;;
21569;SDS011;57598;50.888;4.746;2023-07-29T08:44:35;36.05;;;33.85;;
21569;SDS011;57598;50.888;4.746;2023-07-29T08:47:03;34.90;;;32.72;;
21569;SDS011;57598;50.888;4.746;2023-07-29T08:49:31;33.70;;;31.70;;
21569;SDS011;57598;50.888;4.746;2023-07-29T08:52:00;34.10;;;32.10;;
21569;SDS011;57598;50.888;4.746;2023-07-29T08:54:28;35.22;;;33.03;;
21569;SDS011;57598;50.888;4.746;2023-07-29T08:56:55;34.70;;;32.67;;
21569;SDS011;57598;50.888;4.746;2023-07-29T08:59:23;33.13;;;31.13;;
21569;SDS011;57598;50.888;4.746;2023-07-29T09:01:50;34.65;;;32.63;;
21569;SDS011;57598;50.888;4.746;2023-07-29T09:04:20;33.97;;;31.63;;
21569;SDS011;57598;50.888;4.746;2023-07-29T09:06:48;31.63;;;29.83;;
21569;SDS011;57598;50.888;4.746;2023-07-29T09:09:18;28.45;;;26.85;;
21569;SDS011;57598;50.888;4.746;2023-07-29T09:11:45;26.70;;;25.20;;
21569;SDS011;57598;50.888;4.746;2023-07-29T09:14:13;25.92;;;24.42;;
21569;SDS011;57598;50.888;4.746;2023-07-29T09:16:40;23.50;;;22.20;;
21569;SDS011;57598;50.888;4.746;2023-07-29T09:19:08;22.15;;;20.95;;
21569;SDS011;57598;50.888;4.746;2023-07-29T09:21:38;22.67;;;21.30;;
21569;SDS011;57598;50.888;4.746;2023-07-29T09:24:06;19.75;;;18.65;;
21569;SDS011;57598;50.888;4.746;2023-07-29T09:26:35;20.00;;;18.90;;
21569;SDS011;57598;50.888;4.746;2023-07-29T09:29:02;19.83;;;18.73;;
21569;SDS011;57598;50.888;4.746;2023-07-29T09:31:30;19.33;;;18.23;;
21569;SDS011;57598;50.888;4.746;2023-07-29T09:33:57;19.60;;;18.42;;
21569;SDS011;57598;50.888;4.746;2023-07-29T09:36:25;19.38;;;18.27;;
21569;SDS011;57598;50.888;4.746;2023-07-29T09:38:52;20.50;;;19.30;;
21569;SDS011;57598;50.888;4.746;2023-07-29T09:41:21;21.60;;;20.40;;
21569;SDS011;57598;50.888;4.746;2023-07-29T09:43:52;22.02;;;20.83;;
21569;SDS011;57598;50.888;4.746;2023-07-29T09:46:22;23.20;;;21.58;;
21569;SDS011;57598;50.888;4.746;2023-07-29T09:48:52;23.02;;;21.73;;
21569;SDS011;57598;50.888;4.746;2023-07-29T09:51:21;22.77;;;21.55;;
21569;SDS011;57598;50.888;4.746;2023-07-29T09:53:49;22.25;;;21.02;;
21569;SDS011;57598;50.888;4.746;2023-07-29T09:56:16;22.35;;;21.05;;
21569;SDS011;57598;50.888;4.746;2023-07-29T09:58:44;23.05;;;21.75;;
21569;SDS011;57598;50.888;4.746;2023-07-29T10:01:13;22.23;;;21.02;;
21569;SDS011;57598;50.888;4.746;2023-07-29T10:03:41;22.40;;;21.15;;
21569;SDS011;57598;50.888;4.746;2023-07-29T10:06:09;23.27;;;21.98;;
21569;SDS011;57598;50.888;4.746;2023-07-29T10:08:37;22.58;;;21.35;;
21569;SDS011;57598;50.888;4.746;2023-07-29T10:11:06;23.05;;;21.75;;
21569;SDS011;57598;50.888;4.746;2023-07-29T10:13:33;23.13;;;21.77;;
21569;SDS011;57598;50.888;4.746;2023-07-29T10:16:01;22.88;;;21.58;;
21569;SDS011;57598;50.888;4.746;2023-07-29T10:18:31;22.63;;;21.40;;
21569;SDS011;57598;50.888;4.746;2023-07-29T10:20:59;21.58;;;20.38;;
21569;SDS011;57598;50.888;4.746;2023-07-29T10:23:27;21.63;;;20.40;;
21569;SDS011;57598;50.888;4.746;2023-07-29T10:25:55;22.00;;;20.70;;
21569;SDS011;57598;50.888;4.746;2023-07-29T10:28:25;22.38;;;21.17;;
21569;SDS011;57598;50.888;4.746;2023-07-29T10:30:53;22.00;;;20.73;;
21569;SDS011;57598;50.888;4.746;2023-07-29T10:33:20;22.92;;;21.63;;
21569;SDS011;57598;50.888;4.746;2023-07-29T10:35:49;23.48;;;22.17;;
21569;SDS011;57598;50.888;4.746;2023-07-29T10:38:17;25.17;;;23.67;;
21569;SDS011;57598;50.888;4.746;2023-07-29T10:40:45;24.67;;;23.27;;
21569;SDS011;57598;50.888;4.746;2023-07-29T10:43:13;25.92;;;24.52;;
21569;SDS011;57598;50.888;4.746;2023-07-29T10:45:45;29.60;;;27.73;;
21569;SDS011;57598;50.888;4.746;2023-07-29T10:48:12;114.35;;;105.82;;
21569;SDS011;57598;50.888;4.746;2023-07-29T10:50:40;183.98;;;170.60;;
21569;SDS011;57598;50.888;4.746;2023-07-29T10:53:08;340.70;;;320.10;;
21569;SDS011;57598;50.888;4.746;2023-07-29T10:55:36;288.92;;;270.98;;
21569;SDS011;57598;50.888;4.746;2023-07-29T10:58:07;191.10;;;178.45;;
21569;SDS011;57598;50.888;4.746;2023-07-29T11:00:35;170.40;;;158.95;;
21569;SDS011;57598;50.888;4.746;2023-07-29T11:03:02;113.25;;;104.75;;
21569;SDS011;57598;50.888;4.746;2023-07-29T11:05:46;76.10;;;69.90;;
21569;SDS011;57598;50.888;4.746;2023-07-29T11:08:22;62.55;;;57.15;;
21569;SDS011;57598;50.888;4.746;2023-07-29T11:11:01;57.60;;;52.50;;
21569;SDS011;57598;50.888;4.746;2023-07-29T11:13:28;58.55;;;53.25;;
21569;SDS011;57598;50.888;4.746;2023-07-29T11:15:56;56.72;;;52.03;;
21569;SDS011;57598;50.888;4.746;2023-07-29T11:18:25;56.72;;;51.72;;
21569;SDS011;57598;50.888;4.746;2023-07-29T11:20:53;52.28;;;47.47;;
21569;SDS011;57598;50.888;4.746;2023-07-29T11:23:22;50.30;;;45.40;;
21569;SDS011;57598;50.888;4.746;2023-07-29T11:25:54;48.78;;;44.10;;
21569;SDS011;57598;50.888;4.746;2023-07-29T11:28:21;50.22;;;45.63;;
21569;SDS011;57598;50.888;4.746;2023-07-29T11:30:49;49.80;;;45.30;;
21569;SDS011;57598;50.888;4.746;2023-07-29T11:33:17;49.78;;;45.33;;
21569;SDS011;57598;50.888;4.746;2023-07-29T11:35:44;49.10;;;44.70;;
21569;SDS011;57598;50.888;4.746;2023-07-29T11:38:14;49.17;;;44.78;;
21569;SDS011;57598;50.888;4.746;2023-07-29T11:40:44;48.83;;;44.42;;
21569;SDS011;57598;50.888;4.746;2023-07-29T11:43:20;47.53;;;43.22;;
21569;SDS011;57598;50.888;4.746;2023-07-29T11:45:47;49.58;;;45.08;;
21569;SDS011;57598;50.888;4.746;2023-07-29T11:48:15;50.80;;;46.30;;
21569;SDS011;57598;50.888;4.746;2023-07-29T11:50:42;51.58;;;47.10;;
21569;SDS011;57598;50.888;4.746;2023-07-29T11:53:09;51.33;;;46.92;;
21569;SDS011;57598;50.888;4.746;2023-07-29T11:55:38;52.92;;;48.33;;
21569;SDS011;57598;50.888;4.746;2023-07-29T11:58:07;50.90;;;46.63;;
21569;SDS011;57598;50.888;4.746;2023-07-29T12:00:34;49.17;;;45.08;;
21569;SDS011;57598;50.888;4.746;2023-07-29T12:03:01;52.70;;;48.47;;
21569;SDS011;57598;50.888;4.746;2023-07-29T12:05:29;50.72;;;46.60;;
21569;SDS011;57598;50.888;4.746;2023-07-29T12:07:56;52.03;;;48.33;;
21569;SDS011;57598;50.888;4.746;2023-07-29T12:10:23;52.33;;;48.63;;
21569;SDS011;57598;50.888;4.746;2023-07-29T12:12:51;51.22;;;47.72;;
21569;SDS011;57598;50.888;4.746;2023-07-29T12:15:26;50.78;;;47.28;;
21569;SDS011;57598;50.888;4.746;2023-07-29T12:17:54;49.30;;;45.58;;
21569;SDS011;57598;50.888;4.746;2023-07-29T12:20:25;51.55;;;47.95;;
21569;SDS011;57598;50.888;4.746;2023-07-29T12:22:52;49.67;;;46.22;;
21569;SDS011;57598;50.888;4.746;2023-07-29T12:25:20;50.63;;;47.22;;
21569;SDS011;57598;50.888;4.746;2023-07-29T12:27:47;49.33;;;45.92;;
21569;SDS011;57598;50.888;4.746;2023-07-29T12:30:15;51.72;;;48.22;;
21569;SDS011;57598;50.888;4.746;2023-07-29T12:32:45;50.38;;;46.88;;
21569;SDS011;57598;50.888;4.746;2023-07-29T12:35:12;50.72;;;47.22;;
21569;SDS011;57598;50.888;4.746;2023-07-29T12:37:40;55.33;;;50.88;;
21569;SDS011;57598;50.888;4.746;2023-07-29T12:40:09;53.45;;;49.15;;
21569;SDS011;57598;50.888;4.746;2023-07-29T12:42:47;54.30;;;49.08;;
21569;SDS011;57598;50.888;4.746;2023-07-29T12:45:15;51.05;;;46.85;;
21569;SDS011;57598;50.888;4.746;2023-07-29T12:47:42;52.95;;;48.22;;
21569;SDS011;57598;50.888;4.746;2023-07-29T12:50:11;52.67;;;48.47;;
21569;SDS011;57598;50.888;4.746;2023-07-29T12:52:38;52.35;;;48.10;;
21569;SDS011;57598;50.888;4.746;2023-07-29T12:55:05;52.53;;;48.13;;
21569;SDS011;57598;50.888;4.746;2023-07-29T12:57:38;52.38;;;47.83;;
21569;SDS011;57598;50.888;4.746;2023-07-29T13:00:06;53.72;;;49.03;;
21569;SDS011;57598;50.888;4.746;2023-07-29T13:02:34;54.80;;;50.08;;
21569;SDS011;57598;50.888;4.746;2023-07-29T13:05:01;54.10;;;48.88;;
21569;SDS011;57598;50.888;4.746;2023-07-29T13:07:30;53.00;;;48.40;;
21569;SDS011;57598;50.888;4.746;2023-07-29T13:09:57;53.53;;;48.92;;
21569;SDS011;57598;50.888;4.746;2023-07-29T13:12:24;52.20;;;47.70;;
21569;SDS011;57598;50.888;4.746;2023-07-29T13:14:51;53.85;;;49.25;;
21569;SDS011;57598;50.888;4.746;2023-07-29T13:17:19;52.17;;;47.78;;
21569;SDS011;57598;50.888;4.746;2023-07-29T13:19:47;50.45;;;46.33;;
21569;SDS011;57598;50.888;4.746;2023-07-29T13:22:14;50.70;;;46.45;;
21569;SDS011;57598;50.888;4.746;2023-07-29T13:24:42;51.45;;;47.35;;
21569;SDS011;57598;50.888;4.746;2023-07-29T13:29:46;50.85;;;47.05;;
21569;SDS011;57598;50.888;4.746;2023-07-29T13:32:13;52.75;;;48.95;;
21569;SDS011;57598;50.888;4.746;2023-07-29T13:34:40;52.88;;;49.10;;
21569;SDS011;57598;50.888;4.746;2023-07-29T13:37:07;51.58;;;48.08;;
21569;SDS011;57598;50.888;4.746;2023-07-29T13:39:35;49.70;;;46.30;;
21569;SDS011;57598;50.888;4.746;2023-07-29T13:42:04;47.55;;;44.35;;
21569;SDS011;57598;50.888;4.746;2023-07-29T13:44:31;46.67;;;43.67;;
21569;SDS011;57598;50.888;4.746;2023-07-29T13:46:58;45.45;;;42.55;;
21569;SDS011;57598;50.888;4.746;2023-07-29T13:49:25;46.65;;;43.75;;
21569;SDS011;57598;50.888;4.746;2023-07-29T13:51:53;44.75;;;41.92;;
21569;SDS011;57598;50.888;4.746;2023-07-29T13:54:20;44.55;;;41.65;;
21569;SDS011;57598;50.888;4.746;2023-07-29T13:56:47;44.95;;;41.97;;
21569;SDS011;57598;50.888;4.746;2023-07-29T13:59:16;45.45;;;42.55;;
21569;SDS011;57598;50.888;4.746;2023-07-29T14:01:43;46.03;;;43.22;;
21569;SDS011;57598;50.888;4.746;2023-07-29T14:04:10;44.70;;;42.00;;
21569;SDS011;57598;50.888;4.746;2023-07-29T14:06:38;45.22;;;42.50;;
21569;SDS011;57598;50.888;4.746;2023-07-29T14:09:05;42.65;;;40.05;;
21569;SDS011;57598;50.888;4.746;2023-07-29T14:11:32;40.80;;;38.40;;
21569;SDS011;57598;50.888;4.746;2023-07-29T14:14:00;41.88;;;39.38;;
21569;SDS011;57598;50.888;4.746;2023-07-29T14:16:28;41.08;;;38.58;;
21569;SDS011;57598;50.888;4.746;2023-07-29T14:18:56;41.75;;;39.15;;
21569;SDS011;57598;50.888;4.746;2023-07-29T14:21:23;40.65;;;38.05;;
21569;SDS011;57598;50.888;4.746;2023-07-29T14:23:51;41.53;;;38.83;;
21569;SDS011;57598;50.888;4.746;2023-07-29T14:26:18;43.20;;;40.50;;
21569;SDS011;57598;50.888;4.746;2023-07-29T14:28:45;43.35;;;40.55;;